Time;durP1;ratioP1;P1;durP2;ratioP2;P2;SDS_P1;SDS_P2;PMS_P1;PMS_P2;Temp;Humidity;BMP_temperature;BMP_pressure;BME280_temperature;BME280_humidity;BME280_pressure;Samples;Min_cycle;Max_cycle;Signal;HPM_P1;HPM_P2
2023/05/02 00:00:51;;;;;;;;;;;;;;;19.17;61.11;100657.05;2336704;76;50451;-73
2023/05/02 00:03:52;;;;;;;;;;;;;;;19.19;61.23;100659.53;2341053;75;51707;-72
2023/05/02 00:06:54;;;;;;;;;;;;;;;19.17;61.24;100655.71;2336848;76;50658;-73
2023/05/02 00:09:56;;;;;;;;;;;;;;;19.19;61.19;100654.16;2336596;76;51508;-75
2023/05/02 00:12:57;;;;;;;;;;;;;;;19.17;61.27;100651.69;2336689;75;51488;-72
2023/05/02 00:15:59;;;;;;;;;;;;;;;19.17;61.26;100657.05;2340962;75;51020;-73
2023/05/02 00:19:00;;;;;;;;;;;;;;;19.18;61.30;100650.66;2341277;75;51689;-73
2023/05/02 00:22:02;;;;;;;;;;;;;;;19.16;61.32;100647.32;2341144;75;51460;-71
2023/05/02 00:25:04;;;;;;;;;;;;;;;19.16;61.20;100650.00;2341158;75;51438;-72
2023/05/02 00:28:05;;;;;;;;;;;;;;;19.17;61.35;100650.86;2341034;76;52498;-73
2023/05/02 00:31:07;;;;;;;;;;;;;;;19.16;61.37;100644.64;2341048;75;51558;-72
2023/05/02 00:34:09;;;;;;;;;;;;;;;19.16;61.28;100639.27;2336730;76;50840;-72
2023/05/02 00:37:10;;;;;;;;;;;;;;;19.15;61.38;100649.18;2325339;75;51553;-73
2023/05/02 00:40:12;;;;;;;;;;;;;;;19.16;61.40;100652.69;2275217;76;51748;-75
2023/05/02 00:43:14;;;;;;;;;;;;;;;19.15;61.39;100648.35;2334527;76;50370;-70
2023/05/02 00:46:16;;;;;;;;;;;;;;;19.16;61.41;100644.64;2334439;76;50782;-72
2023/05/02 00:49:18;;;;;;;;;;;;;;;19.17;61.49;100650.86;2334352;76;50425;-72
2023/05/02 00:52:19;;;;;;;;;;;;;;;19.17;61.42;100646.84;2334435;76;50013;-71
2023/05/02 00:55:21;;;;;;;;;;;;;;;19.15;61.46;100642.98;2334423;76;50322;-72
2023/05/02 00:58:22;;;;;;;;;;;;;;;19.17;61.41;100640.95;2334444;76;50283;-71
2023/05/02 01:01:32;;;;;;;;;;;;;;;19.15;61.48;100652.38;2299991;76;51743;-72
2023/05/02 01:04:35;;;;;;;;;;;;;;;19.15;61.27;100654.55;2300094;76;51776;-75
2023/05/02 01:07:41;;;;;;;;;;;;;;;19.17;61.41;100645.50;2334355;76;50462;-72
2023/05/02 01:10:51;;;;;;;;;;;;;;;19.16;61.20;100648.66;2334310;76;51459;-72
2023/05/02 01:13:53;;;;;;;;;;;;;;;19.14;61.53;100651.55;2334304;76;51566;-73
2023/05/02 01:16:54;;;;;;;;;;;;;;;19.15;61.51;100651.03;2275174;76;51071;-73
2023/05/02 01:19:58;;;;;;;;;;;;;;;19.15;61.41;100652.38;2334508;76;51524;-73
2023/05/02 01:23:00;;;;;;;;;;;;;;;19.14;61.55;100652.06;2332733;76;51597;-72
2023/05/02 01:26:03;;;;;;;;;;;;;;;19.14;61.57;100650.21;2334311;76;50497;-73
2023/05/02 01:29:05;;;;;;;;;;;;;;;19.14;61.50;100658.26;2300041;76;49688;-73
2023/05/02 01:32:07;;;;;;;;;;;;;;;19.13;61.45;100660.59;2299776;76;51654;-74
2023/05/02 01:35:08;;;;;;;;;;;;;;;19.14;61.49;100666.30;2334142;76;50661;-73
2023/05/02 01:38:11;;;;;;;;;;;;;;;19.14;61.49;100666.81;2299850;76;50286;-74
2023/05/02 01:41:13;;;;;;;;;;;;;;;19.14;61.60;100668.16;2300151;76;51221;-73
2023/05/02 01:44:16;;;;;;;;;;;;;;;19.14;61.55;100673.52;2334197;76;50396;-73
2023/05/02 01:47:17;;;;;;;;;;;;;;;19.14;61.59;100674.86;2334140;76;51562;-73
2023/05/02 01:50:19;;;;;;;;;;;;;;;19.14;61.61;100681.56;2334272;76;51560;-73
2023/05/02 01:53:22;;;;;;;;;;;;;;;19.14;61.56;100678.89;2300209;76;51666;-73
2023/05/02 01:56:24;;;;;;;;;;;;;;;19.15;61.46;100685.91;2334329;76;50726;-73
2023/05/02 01:59:26;;;;;;;;;;;;;;;19.14;61.50;100686.94;2334343;76;51452;-73
2023/05/02 02:02:27;;;;;;;;;;;;;;;19.14;61.73;100686.94;2334258;76;51463;-73
2023/05/02 02:05:29;;;;;;;;;;;;;;;19.13;61.42;100685.25;2299950;76;52351;-72
2023/05/02 02:08:30;;;;;;;;;;;;;;;19.14;61.55;100679.72;2334327;76;51372;-73
2023/05/02 02:11:36;;;;;;;;;;;;;;;19.14;61.63;100685.08;2334259;76;50322;-72
2023/05/02 02:14:38;;;;;;;;;;;;;;;19.14;61.64;100685.08;2334288;76;51656;-73
2023/05/02 02:17:40;;;;;;;;;;;;;;;19.14;61.69;100686.94;2300013;76;51752;-73
2023/05/02 02:20:43;;;;;;;;;;;;;;;19.14;61.72;100688.28;2334354;76;51571;-72
2023/05/02 02:23:44;;;;;;;;;;;;;;;19.14;61.33;100686.94;2334348;76;50737;-73
2023/05/02 02:26:46;;;;;;;;;;;;;;;19.13;61.38;100695.47;2334296;76;50307;-73
2023/05/02 02:29:47;;;;;;;;;;;;;;;19.14;61.41;100703.03;2275073;76;51039;-75
2023/05/02 02:32:49;;;;;;;;;;;;;;;19.14;61.48;100708.39;2334318;76;51560;-72
2023/05/02 02:35:53;;;;;;;;;;;;;;;19.14;61.51;100709.73;2328934;76;51550;-72
2023/05/02 02:38:56;;;;;;;;;;;;;;;19.14;61.61;100721.80;2297023;76;51521;-73
2023/05/02 02:42:06;;;;;;;;;;;;;;;19.13;61.42;100723.62;2276123;77;52632;-76
2023/05/02 02:45:18;;;;;;;;;;;;;;;19.13;61.59;100723.62;2296849;77;50432;-74
2023/05/02 02:48:21;;;;;;;;;;;;;;;19.13;61.59;100729.51;2296852;77;51537;-73
2023/05/02 02:51:25;;;;;;;;;;;;;;;19.12;61.54;100734.05;2295856;77;50728;-74
2023/05/02 02:54:37;;;;;;;;;;;;;;;19.12;61.55;100730.53;2275637;77;52607;-73
2023/05/02 02:57:57;;;;;;;;;;;;;;;19.12;61.55;100739.41;2296960;77;51562;-72
2023/05/02 03:00:59;;;;;;;;;;;;;;;19.12;61.62;100738.58;2297153;77;50772;-72
2023/05/02 03:04:00;;;;;;;;;;;;;;;19.11;61.73;100734.22;2304446;76;50239;-73
2023/05/02 03:07:02;;;;;;;;;;;;;;;19.11;61.71;100746.28;2295577;75;51171;-74
2023/05/02 03:10:04;;;;;;;;;;;;;;;19.12;61.62;100754.67;2297060;77;50459;-72
2023/05/02 03:13:06;;;;;;;;;;;;;;;19.12;61.63;100766.74;2297087;77;51579;-73
2023/05/02 03:16:09;;;;;;;;;;;;;;;19.13;61.52;100773.77;2296929;77;51549;-72
2023/05/02 03:19:11;;;;;;;;;;;;;;;19.13;61.67;100787.17;2297064;76;51588;-73
2023/05/02 03:22:12;;;;;;;;;;;;;;;19.13;61.70;100795.22;2297174;77;51477;-72
2023/05/02 03:25:14;;;;;;;;;;;;;;;19.12;61.51;100794.39;2275716;77;51479;-73
2023/05/02 03:28:16;;;;;;;;;;;;;;;19.11;61.81;100797.25;2297111;76;50797;-73
2023/05/02 03:31:17;;;;;;;;;;;;;;;19.11;61.74;100798.59;2275931;77;50353;-76
2023/05/02 03:34:21;;;;;;;;;;;;;;;19.11;61.73;100810.17;2275756;77;50433;-74
2023/05/02 03:37:22;;;;;;;;;;;;;;;19.10;61.69;100807.66;2308838;77;51553;-74
2023/05/02 03:40:24;;;;;;;;;;;;;;;19.10;61.66;100811.17;2284125;77;50681;-73
2023/05/02 03:43:26;;;;;;;;;;;;;;;19.10;61.59;100815.19;2283933;77;51678;-72
2023/05/02 03:46:27;;;;;;;;;;;;;;;19.10;61.80;100818.39;2315205;77;50178;-71
2023/05/02 03:49:29;;;;;;;;;;;;;;;19.11;61.64;100822.72;2315177;77;50387;-73
2023/05/02 03:52:30;;;;;;;;;;;;;;;19.11;61.63;100824.06;2315290;77;50788;-73
2023/05/02 03:55:32;;;;;;;;;;;;;;;19.10;61.62;100827.27;2283955;77;52469;-73
2023/05/02 03:58:35;;;;;;;;;;;;;;;19.11;61.62;100824.06;2284090;77;51561;-74
2023/05/02 04:01:36;;;;;;;;;;;;;;;19.10;61.65;100829.95;2315301;77;51689;-73
2023/05/02 04:04:39;;;;;;;;;;;;;;;19.11;61.53;100835.66;2279801;76;50723;-75
2023/05/02 04:07:41;;;;;;;;;;;;;;;19.10;61.62;100839.33;2306961;76;51545;-73
2023/05/02 04:10:42;;;;;;;;;;;;;;;19.10;61.62;100847.89;2264689;77;50689;-75
2023/05/02 04:13:44;;;;;;;;;;;;;;;19.10;61.63;100850.06;2296879;77;50673;-73
2023/05/02 04:16:49;;;;;;;;;;;;;;;19.10;61.67;100863.47;2263773;77;50514;-73
2023/05/02 04:19:51;;;;;;;;;;;;;;;19.11;61.39;100863.81;2263746;77;52658;-74
2023/05/02 04:22:52;;;;;;;;;;;;;;;19.10;61.73;100861.30;2263981;77;51614;-74
2023/05/02 04:25:55;;;;;;;;;;;;;;;19.09;61.75;100865.84;2296770;76;50317;-74
2023/05/02 04:28:56;;;;;;;;;;;;;;;19.10;61.86;100869.34;2296902;76;51681;-74
2023/05/02 04:31:58;;;;;;;;;;;;;;;19.11;61.82;100871.00;2264023;77;52392;-75
2023/05/02 04:35:00;;;;;;;;;;;;;;;19.10;61.81;100876.88;2279170;76;51585;-75
2023/05/02 04:38:02;;;;;;;;;;;;;;;19.10;61.88;100877.39;2296953;77;51607;-75
2023/05/02 04:41:03;;;;;;;;;;;;;;;19.10;61.71;100884.09;2276055;77;50693;-74
2023/05/02 04:44:05;;;;;;;;;;;;;;;19.11;61.67;100880.39;2296832;77;50337;-74
2023/05/02 04:47:06;;;;;;;;;;;;;;;19.11;61.67;100877.23;2275687;77;50740;-73
2023/05/02 04:50:08;;;;;;;;;;;;;;;19.11;61.78;100884.41;2275596;77;53766;-74
2023/05/02 04:53:10;;;;;;;;;;;;;;;19.13;61.76;100891.78;2275617;77;51543;-75
2023/05/02 04:56:12;;;;;;;;;;;;;;;19.13;61.68;100897.97;2275540;77;51601;-76
2023/05/02 04:59:14;;;;;;;;;;;;;;;19.14;61.39;100907.70;2276193;77;51743;-76
2023/05/02 05:02:15;;;;;;;;;;;;;;;19.14;61.34;100906.88;2275833;77;51547;-73
2023/05/02 05:05:17;;;;;;;;;;;;;;;19.16;61.30;100923.60;2290719;76;50705;-74
2023/05/02 05:08:18;;;;;;;;;;;;;;;19.15;61.25;100913.38;2298702;75;51581;-77
2023/05/02 05:11:21;;;;;;;;;;;;;;;19.17;61.13;100923.95;2239474;77;53822;-76
2023/05/02 05:14:23;;;;;;;;;;;;;;;19.18;59.83;100930.97;2301009;76;52607;-74
2023/05/02 05:17:24;;;;;;;;;;;;;;;19.22;60.02;100941.67;2264437;77;50715;-74
2023/05/02 05:20:26;;;;;;;;;;;;;;;19.16;60.36;100941.03;2256061;77;50671;-74
2023/05/02 05:23:28;;;;;;;;;;;;;;;19.14;60.00;100951.96;2231937;77;52436;-74
2023/05/02 05:26:29;;;;;;;;;;;;;;;19.13;59.53;100949.45;2296262;76;50370;-73
2023/05/02 05:29:31;;;;;;;;;;;;;;;19.20;59.31;100961.13;2264079;77;51455;-74
2023/05/02 05:32:33;;;;;;;;;;;;;;;19.25;59.32;100964.11;2264111;77;50887;-74
2023/05/02 05:35:35;;;;;;;;;;;;;;;19.31;59.18;100968.75;2263448;76;51529;-73
2023/05/02 05:38:36;;;;;;;;;;;;;;;19.41;58.99;100975.22;2275825;77;51607;-74
2023/05/02 05:41:38;;;;;;;;;;;;;;;19.48;58.88;100978.03;2297068;77;51476;-73
2023/05/02 05:44:39;;;;;;;;;;;;;;;19.59;58.85;100985.63;2297080;76;50653;-73
2023/05/02 05:47:41;;;;;;;;;;;;;;;19.66;58.72;100989.27;2250857;76;52577;-74
2023/05/02 05:50:43;;;;;;;;;;;;;;;19.72;58.77;100989.07;2286342;76;51463;-73
2023/05/02 05:53:44;;;;;;;;;;;;;;;19.77;58.57;100995.56;2306103;76;51499;-74
2023/05/02 05:56:46;;;;;;;;;;;;;;;19.84;58.58;101004.25;2263939;77;50083;-76
2023/05/02 05:59:47;;;;;;;;;;;;;;;19.87;58.61;101007.91;2239224;77;51063;-74
2023/05/02 06:02:49;;;;;;;;;;;;;;;19.88;58.70;101000.16;2296996;77;51620;-75
2023/05/02 06:05:50;;;;;;;;;;;;;;;19.89;58.37;101009.91;2264008;77;50211;-76
2023/05/02 06:08:52;;;;;;;;;;;;;;;19.96;58.18;101013.50;2297024;77;51584;-72
2023/05/02 06:11:54;;;;;;;;;;;;;;;19.97;58.05;101023.24;2297010;77;50299;-73
2023/05/02 06:14:55;;;;;;;;;;;;;;;19.90;58.33;101030.36;2264035;77;50502;-73
2023/05/02 06:17:57;;;;;;;;;;;;;;;19.87;58.30;101036.10;2264328;77;50292;-72
2023/05/02 06:21:00;;;;;;;;;;;;;;;19.93;58.15;101044.24;2320592;76;50745;-73
2023/05/02 06:24:02;;;;;;;;;;;;;;;19.92;58.04;101047.13;2306091;76;51762;-76
2023/05/02 06:27:03;;;;;;;;;;;;;;;19.94;58.07;101059.88;2341081;75;51482;-73
2023/05/02 06:30:05;;;;;;;;;;;;;;;19.96;58.09;101060.50;2340965;75;50579;-73
2023/05/02 06:33:07;;;;;;;;;;;;;;;20.00;57.95;101061.82;2336690;76;50280;-73
2023/05/02 06:36:09;;;;;;;;;;;;;;;20.04;57.95;101057.77;2340906;75;50302;-74
2023/05/02 06:39:11;;;;;;;;;;;;;;;20.08;57.80;101067.63;2340965;75;50310;-74
2023/05/02 06:42:12;;;;;;;;;;;;;;;20.09;57.84;101075.52;2336603;76;51565;-73
2023/05/02 06:45:14;;;;;;;;;;;;;;;20.11;57.82;101073.97;2336405;76;50281;-73
2023/05/02 06:48:16;;;;;;;;;;;;;;;20.07;57.89;101076.20;2341037;75;51210;-74
2023/05/02 06:51:18;;;;;;;;;;;;;;;20.10;57.76;101081.72;2307559;75;51184;-73
2023/05/02 06:54:20;;;;;;;;;;;;;;;20.13;57.71;101092.92;2298250;75;51672;-73
2023/05/02 06:57:22;;;;;;;;;;;;;;;20.14;57.66;101099.98;2275968;76;50910;-76
2023/05/02 07:00:23;;;;;;;;;;;;;;;20.18;57.55;101101.27;2275806;77;51741;-74
2023/05/02 07:03:25;;;;;;;;;;;;;;;20.20;57.48;101109.98;2275930;77;51558;-73
2023/05/02 07:06:26;;;;;;;;;;;;;;;20.21;57.48;101118.36;2297111;77;51374;-76
2023/05/02 07:09:28;;;;;;;;;;;;;;;20.22;57.43;101140.20;2275770;77;51432;-73
2023/05/02 07:12:30;;;;;;;;;;;;;;;20.21;57.47;101143.89;2275728;77;52652;-74
2023/05/02 07:15:31;;;;;;;;;;;;;;;20.18;57.48;101150.97;2296914;76;51473;-73
2023/05/02 07:18:33;;;;;;;;;;;;;;;20.16;57.42;101140.91;2297080;76;51491;-73
2023/05/02 07:21:34;;;;;;;;;;;;;;;20.19;57.27;101159.37;2322545;76;50322;-73
2023/05/02 07:24:38;;;;;;;;;;;;;;;20.18;57.34;101164.41;2275496;77;52587;-74
2023/05/02 07:27:39;;;;;;;;;;;;;;;20.13;57.36;101168.14;2297073;77;51606;-73
2023/05/02 07:30:41;;;;;;;;;;;;;;;20.09;57.40;101161.48;2297112;77;51540;-73
2023/05/02 07:33:43;;;;;;;;;;;;;;;20.04;57.46;101162.53;2275916;77;51570;-79
2023/05/02 07:36:44;;;;;;;;;;;;;;;20.04;57.40;101173.28;2250626;77;52616;-73
2023/05/02 07:39:46;;;;;;;;;;;;;;;20.00;57.43;101172.78;2275822;77;50759;-73
2023/05/02 07:42:49;;;;;;;;;;;;;;;19.97;57.45;101177.69;2299843;76;51416;-75
2023/05/02 07:45:51;;;;;;;;;;;;;;;19.96;57.48;101177.34;2300404;76;50788;-75
2023/05/02 07:48:52;;;;;;;;;;;;;;;19.94;57.46;101181.57;2281725;76;51781;-75
2023/05/02 07:51:55;;;;;;;;;;;;;;;19.93;57.45;101180.39;2327937;75;50663;-75
2023/05/02 07:54:56;;;;;;;;;;;;;;;19.89;57.50;101185.30;2343760;75;50595;-75
2023/05/02 07:57:59;;;;;;;;;;;;;;;19.90;57.43;101186.13;2345084;75;50711;-76
2023/05/02 08:01:01;;;;;;;;;;;;;;;19.89;57.44;101192.52;2318428;76;51293;-75
2023/05/02 08:04:04;;;;;;;;;;;;;;;19.88;57.43;101193.52;2340301;76;51241;-77
2023/05/02 08:07:06;;;;;;;;;;;;;;;19.89;57.36;101200.58;2344706;75;50659;-76
2023/05/02 08:10:08;;;;;;;;;;;;;;;19.87;57.35;101197.23;2339464;76;50699;-76
2023/05/02 08:13:11;;;;;;;;;;;;;;;19.88;57.29;101206.95;2343797;75;49450;-76
2023/05/02 08:16:12;;;;;;;;;;;;;;;19.84;57.34;101200.28;2339109;76;49960;-76
2023/05/02 08:19:14;;;;;;;;;;;;;;;19.83;57.36;101210.16;2335486;75;51205;-76
2023/05/02 08:22:16;;;;;;;;;;;;;;;19.84;57.29;101213.70;2324332;76;51644;-77
2023/05/02 08:25:18;;;;;;;;;;;;;;;19.84;57.25;101212.36;2277940;76;51730;-76
2023/05/02 08:28:19;;;;;;;;;;;;;;;19.80;57.30;101219.41;2278116;77;50735;-76
2023/05/02 08:31:21;;;;;;;;;;;;;;;19.82;57.22;101218.41;2277750;76;50662;-75
2023/05/02 08:34:22;;;;;;;;;;;;;;;19.79;57.25;101231.17;2298948;77;50765;-76
2023/05/02 08:37:24;;;;;;;;;;;;;;;19.79;57.29;101229.83;2278006;77;51829;-76
2023/05/02 08:40:26;;;;;;;;;;;;;;;19.79;57.23;101237.05;2279336;77;51279;-75
2023/05/02 08:43:28;;;;;;;;;;;;;;;19.77;57.23;101231.85;2298402;76;50681;-76
2023/05/02 08:46:29;;;;;;;;;;;;;;;19.78;57.21;101238.91;2297834;76;50157;-76
2023/05/02 08:49:31;;;;;;;;;;;;;;;19.77;57.23;101245.79;2279306;76;51216;-75
2023/05/02 08:52:33;;;;;;;;;;;;;;;19.76;57.21;101241.45;2311073;75;50728;-75
2023/05/02 08:55:38;;;;;;;;;;;;;;;19.75;57.22;101250.49;2299501;77;50640;-76
2023/05/02 08:58:40;;;;;;;;;;;;;;;19.75;57.15;101254.52;2300082;77;22790;-75
2023/05/02 09:01:41;;;;;;;;;;;;;;;19.76;57.16;101248.16;2278320;77;51588;-75
2023/05/02 09:04:43;;;;;;;;;;;;;;;19.76;57.10;101261.07;2299644;76;50723;-75
2023/05/02 09:07:46;;;;;;;;;;;;;;;19.77;57.09;101257.36;2300171;77;50604;-76
2023/05/02 09:10:47;;;;;;;;;;;;;;;19.77;57.09;101265.93;2298000;77;50584;-74
2023/05/02 09:13:54;;;;;;;;;;;;;;;19.76;57.19;101275.01;2275628;77;51219;-75
2023/05/02 09:16:54;;;;;;;;;;;;;;;19.72;57.25;101285.24;2255709;76;22391;-74
2023/05/02 09:20:00;;;;;;;;;;;;;;;19.72;57.27;101290.61;2303712;76;50294;-74
2023/05/02 09:23:02;;;;;;;;;;;;;;;19.71;57.26;101294.33;2310191;76;50848;-76
2023/05/02 09:26:14;;;;;;;;;;;;;;;19.71;57.36;101296.17;2291591;75;52414;-76
2023/05/02 09:29:16;;;;;;;;;;;;;;;19.69;57.33;101299.02;2319936;76;50760;-75
2023/05/02 09:32:17;;;;;;;;;;;;;;;19.69;57.39;101300.37;2288284;76;51600;-74
2023/05/02 09:35:22;;;;;;;;;;;;;;;19.70;57.49;101307.40;2313304;76;50725;-74
2023/05/02 09:38:22;;;;;;;;;;;;;;;19.72;57.38;101306.72;2334943;75;22309;-75
2023/05/02 09:41:24;;;;;;;;;;;;;;;19.70;57.49;101310.08;2322123;76;51476;-76
2023/05/02 09:44:26;;;;;;;;;;;;;;;19.70;57.48;101305.22;2335896;76;50846;-76
2023/05/02 09:47:28;;;;;;;;;;;;;;;19.70;57.39;101310.08;2326843;76;51614;-76
2023/05/02 09:50:36;;;;;;;;;;;;;;;19.69;57.28;101316.48;2270306;77;52410;-76
2023/05/02 09:53:38;;;;;;;;;;;;;;;19.68;57.29;101318.84;2286413;76;51642;-76
2023/05/02 09:56:53;;;;;;;;;;;;;;;19.68;57.65;101322.01;2304872;75;50318;-77
2023/05/02 09:59:58;;;;;;;;;;;;;;;19.69;58.83;101323.19;2276193;77;50406;-75
2023/05/02 10:02:59;;;;;;;;;;;;;;;19.71;58.03;101331.08;2304635;76;51301;-76
2023/05/02 10:06:01;;;;;;;;;;;;;;;19.72;57.89;101336.26;2307306;76;51565;-75
2023/05/02 10:09:03;;;;;;;;;;;;;;;19.69;57.88;101336.61;2297194;77;50297;-75
2023/05/02 10:12:06;;;;;;;;;;;;;;;19.71;57.82;101343.16;2297174;76;51479;-76
2023/05/02 10:15:08;;;;;;;;;;;;;;;19.70;57.75;101340.12;2297516;76;22359;-75
2023/05/02 10:18:14;;;;;;;;;;;;;;;19.72;57.68;101344.83;2297220;77;50335;-76
2023/05/02 10:21:20;;;;;;;;;;;;;;;19.72;57.62;101344.31;2297302;76;50810;-76
2023/05/02 10:24:21;;;;;;;;;;;;;;;19.70;57.62;101339.62;2308230;76;51488;-76
2023/05/02 10:27:23;;;;;;;;;;;;;;;19.71;57.58;101348.02;2281998;75;49882;-76
2023/05/02 10:30:25;;;;;;;;;;;;;;;19.70;57.61;101355.73;2297287;76;51580;-76
2023/05/02 10:33:26;;;;;;;;;;;;;;;19.69;57.56;101351.38;2275945;77;51591;-75
2023/05/02 10:36:28;;;;;;;;;;;;;;;19.69;57.55;101367.49;2296942;77;51515;-76
2023/05/02 10:39:31;;;;;;;;;;;;;;;19.70;57.51;101365.64;2275938;77;51835;-76
2023/05/02 10:42:34;;;;;;;;;;;;;;;19.70;57.51;101375.03;2297309;77;50312;-76
2023/05/02 10:45:36;;;;;;;;;;;;;;;19.67;57.46;101378.90;2297071;77;51493;-76
2023/05/02 10:48:38;;;;;;;;;;;;;;;19.68;57.43;101385.97;2276056;76;51605;-75
2023/05/02 10:51:40;;;;;;;;;;;;;;;19.68;57.42;101403.89;2275800;77;52554;-76
2023/05/02 10:54:41;;;;;;;;;;;;;;;19.66;57.44;101401.88;2282763;77;50491;-76
2023/05/02 10:58:00;;;;;;;;;;;;;;;19.66;57.41;101412.11;2327230;76;50284;-75
2023/05/02 11:01:22;;;;;;;;;;;;;;;19.69;57.32;101410.96;2336593;76;50712;-76
2023/05/02 11:04:23;;;;;;;;;;;;;;;19.68;57.28;101422.21;2336467;76;51528;-76
2023/05/02 11:07:25;;;;;;;;;;;;;;;19.66;57.31;101421.50;2336719;76;50238;-76
2023/05/02 11:10:27;;;;;;;;;;;;;;;19.66;57.27;101436.27;2341070;75;51483;-75
2023/05/02 11:13:37;;;;;;;;;;;;;;;19.66;57.29;101446.18;2341047;75;50364;-76
2023/05/02 11:17:04;;;;;;;;;;;;;;;19.65;57.25;101446.69;2300941;76;51683;-76
2023/05/02 11:20:07;;;;;;;;;;;;;;;19.66;57.21;101454.23;2336694;76;51504;-76
2023/05/02 11:23:27;;;;;;;;;;;;;;;19.65;57.19;101457.91;2332991;76;50724;-76
2023/05/02 11:26:26;;;;;;;;;;;;;;;19.65;57.17;101461.94;2320958;75;22487;-76
2023/05/02 11:29:46;;;;;;;;;;;;;;;19.65;57.11;101475.36;2239375;77;52582;-76
2023/05/02 11:32:52;;;;;;;;;;;;;;;19.64;57.12;101476.38;2296990;77;50536;-76
2023/05/02 11:35:53;;;;;;;;;;;;;;;19.62;57.14;101475.20;2296814;77;22525;-76
2023/05/02 11:38:54;;;;;;;;;;;;;;;19.65;57.05;101485.63;2296983;76;51535;-76
2023/05/02 11:41:56;;;;;;;;;;;;;;;19.67;56.98;101493.01;2264236;77;49613;-77
2023/05/02 11:44:58;;;;;;;;;;;;;;;19.66;56.96;101495.85;2296952;76;50671;-76
2023/05/02 11:48:00;;;;;;;;;;;;;;;19.67;56.95;101498.89;2297097;77;50327;-76
2023/05/02 11:51:03;;;;;;;;;;;;;;;19.69;56.88;101495.54;2297179;76;50354;-76
2023/05/02 11:54:06;;;;;;;;;;;;;;;19.68;56.88;101490.67;2281471;76;22495;-76
2023/05/02 11:57:08;;;;;;;;;;;;;;;19.69;56.85;101493.69;2313963;75;22465;-76
2023/05/02 12:00:10;;;;;;;;;;;;;;;19.68;56.89;101501.90;2293730;76;50134;-75
2023/05/02 12:03:13;;;;;;;;;;;;;;;19.67;56.88;101496.20;2331382;76;51478;-76
2023/05/02 12:06:17;;;;;;;;;;;;;;;19.67;56.89;101505.09;2295585;76;52417;-76
2023/05/02 12:09:20;;;;;;;;;;;;;;;19.69;56.80;101508.45;2334307;76;51626;-75
2023/05/02 12:12:22;;;;;;;;;;;;;;;19.68;56.79;101509.47;2334428;76;50323;-76
2023/05/02 12:15:24;;;;;;;;;;;;;;;19.67;56.81;101513.14;2334423;76;50650;-76
2023/05/02 12:18:26;;;;;;;;;;;;;;;19.68;56.76;101524.23;2300570;76;49784;-76
2023/05/02 12:21:28;;;;;;;;;;;;;;;19.68;56.77;101527.41;2334658;76;50283;-77
2023/05/02 12:24:30;;;;;;;;;;;;;;;19.65;56.79;101529.92;2334372;76;50735;-75
2023/05/02 12:27:34;;;;;;;;;;;;;;;19.66;56.76;101534.27;2334291;76;50331;-76
2023/05/02 12:30:40;;;;;;;;;;;;;;;19.67;56.69;101532.45;2277089;77;52541;-76
2023/05/02 12:33:42;;;;;;;;;;;;;;;19.68;56.63;101531.44;2276742;77;51713;-75
2023/05/02 12:36:44;;;;;;;;;;;;;;;19.68;56.61;101536.80;2297174;77;50335;-76
2023/05/02 12:39:46;;;;;;;;;;;;;;;19.69;56.58;101543.36;2297305;77;50772;-76
2023/05/02 12:43:02;;;;;;;;;;;;;;;19.70;56.52;101536.14;2275963;77;51079;-76
2023/05/02 12:46:09;;;;;;;;;;;;;;;19.72;56.48;101535.47;2276630;76;22399;-76
2023/05/02 12:49:11;;;;;;;;;;;;;;;19.70;56.49;101546.36;2297394;77;51650;-76
2023/05/02 12:52:13;;;;;;;;;;;;;;;19.70;56.49;101543.68;2297260;77;51553;-75
2023/05/02 12:55:16;;;;;;;;;;;;;;;19.69;56.54;101543.36;2275509;77;52448;-75
2023/05/02 12:58:17;;;;;;;;;;;;;;;19.70;56.47;101542.34;2307281;76;50955;-74
2023/05/02 13:01:19;;;;;;;;;;;;;;;19.70;56.50;101545.53;2322799;76;51575;-76
2023/05/02 13:04:21;;;;;;;;;;;;;;;19.69;56.46;101551.41;2336601;75;51573;-75
2023/05/02 13:07:22;;;;;;;;;;;;;;;19.72;56.40;101555.09;2341649;75;52366;-76
2023/05/02 13:10:25;;;;;;;;;;;;;;;19.74;56.31;101553.09;2342761;75;51550;-75
2023/05/02 13:13:26;;;;;;;;;;;;;;;19.77;56.31;101554.60;2338110;76;51626;-76
2023/05/02 13:16:29;;;;;;;;;;;;;;;19.71;56.37;101550.75;2341977;75;51548;-76
2023/05/02 13:19:30;;;;;;;;;;;;;;;19.73;56.33;101562.17;2344957;75;51363;-75
2023/05/02 13:22:32;;;;;;;;;;;;;;;19.71;56.36;101572.73;2342905;75;51136;-76
2023/05/02 13:25:34;;;;;;;;;;;;;;;19.73;56.36;101563.98;2341549;75;51489;-76
2023/05/02 13:28:36;;;;;;;;;;;;;;;19.71;56.40;101575.42;2325147;75;51466;-75
2023/05/02 13:31:38;;;;;;;;;;;;;;;19.73;56.36;101569.36;2303084;76;51792;-75
2023/05/02 13:34:39;;;;;;;;;;;;;;;19.72;56.37;101573.06;2337804;76;49992;-77
2023/05/02 13:37:41;;;;;;;;;;;;;;;19.73;56.34;101574.73;2341334;75;50706;-76
2023/05/02 13:40:42;;;;;;;;;;;;;;;19.74;56.23;101565.69;2341578;75;50413;-76
2023/05/02 13:43:44;;;;;;;;;;;;;;;19.71;56.33;101582.97;2315625;76;51662;-75
2023/05/02 13:46:46;;;;;;;;;;;;;;;19.74;56.28;101582.63;2338251;76;51201;-76
2023/05/02 13:49:48;;;;;;;;;;;;;;;19.75;56.29;101584.80;2336772;75;51489;-76
2023/05/02 13:52:49;;;;;;;;;;;;;;;19.73;56.29;101594.39;2341044;75;51708;-75
2023/05/02 13:55:51;;;;;;;;;;;;;;;19.74;56.29;101591.20;2340677;75;50902;-74
2023/05/02 13:58:52;;;;;;;;;;;;;;;19.72;56.33;101599.41;2333051;75;50343;-76
2023/05/02 14:01:54;;;;;;;;;;;;;;;19.76;56.22;101598.59;2321739;76;50243;-75
2023/05/02 14:04:55;;;;;;;;;;;;;;;19.76;56.20;101593.22;2299918;76;50698;-76
2023/05/02 14:07:57;;;;;;;;;;;;;;;19.73;56.25;101606.47;2274874;76;52573;-75
2023/05/02 14:11:00;;;;;;;;;;;;;;;19.73;56.25;101602.45;2300298;76;50484;-75
2023/05/02 14:14:01;;;;;;;;;;;;;;;19.74;56.21;101612.17;2300028;76;51495;-76
2023/05/02 14:17:04;;;;;;;;;;;;;;;19.73;56.23;101610.50;2334251;76;50306;-75
2023/05/02 14:20:09;;;;;;;;;;;;;;;19.75;56.16;101612.48;2299906;76;51784;-75
2023/05/02 14:23:09;;;;;;;;;;;;;;;19.77;56.11;101617.70;2334233;76;22759;-75
2023/05/02 14:26:11;;;;;;;;;;;;;;;19.75;56.17;101619.20;2299824;76;50834;-74
2023/05/02 14:29:13;;;;;;;;;;;;;;;19.77;56.08;101619.05;2286038;76;50310;-75
2023/05/02 14:32:14;;;;;;;;;;;;;;;19.75;56.14;101632.63;2285952;75;51304;-76
2023/05/02 14:35:16;;;;;;;;;;;;;;;19.75;56.11;101625.92;2275537;77;50373;-75
2023/05/02 14:38:18;;;;;;;;;;;;;;;19.74;56.12;101632.31;2275516;77;50190;-74
2023/05/02 14:41:20;;;;;;;;;;;;;;;19.76;56.08;101630.30;2296949;77;50328;-74
2023/05/02 14:44:22;;;;;;;;;;;;;;;19.75;56.11;101643.37;2275378;77;51684;-75
2023/05/02 14:47:24;;;;;;;;;;;;;;;19.72;56.13;101650.94;2275816;77;51474;-74
2023/05/02 14:50:25;;;;;;;;;;;;;;;19.72;56.13;101653.62;2297007;77;50758;-75
2023/05/02 14:53:27;;;;;;;;;;;;;;;19.70;56.15;101651.09;2297042;77;50444;-74
2023/05/02 14:56:29;;;;;;;;;;;;;;;19.69;56.14;101660.16;2290561;76;51214;-75
2023/05/02 14:59:30;;;;;;;;;;;;;;;19.69;56.13;101662.02;2281777;77;51182;-76
2023/05/02 15:02:32;;;;;;;;;;;;;;;19.69;56.15;101668.22;2322391;76;50683;-76
2023/05/02 15:05:33;;;;;;;;;;;;;;;19.70;56.16;101671.73;2331990;76;50776;-75
2023/05/02 15:08:35;;;;;;;;;;;;;;;19.68;56.16;101669.23;2336223;75;51487;-77
2023/05/02 15:11:37;;;;;;;;;;;;;;;19.69;56.16;101674.93;2312716;76;51665;-75
2023/05/02 15:14:38;;;;;;;;;;;;;;;19.68;56.35;101665.69;2275415;77;51700;-75
2023/05/02 15:17:40;;;;;;;;;;;;;;;19.68;56.31;101673.73;2301748;76;50666;-74
2023/05/02 15:20:43;;;;;;;;;;;;;;;19.69;56.32;101680.81;2340406;75;51920;-74
2023/05/02 15:23:45;;;;;;;;;;;;;;;19.68;56.22;101684.48;2340478;75;51559;-74
2023/05/02 15:26:47;;;;;;;;;;;;;;;19.67;56.07;101689.02;2334009;76;51648;-74
2023/05/02 15:29:48;;;;;;;;;;;;;;;19.66;55.95;101687.31;2320143;75;51486;-73
2023/05/02 15:32:50;;;;;;;;;;;;;;;19.65;55.98;101688.81;2309886;76;52544;-74
2023/05/02 15:35:53;;;;;;;;;;;;;;;19.65;55.94;101695.05;2340688;75;51506;-73